Almeria, Nebraska
Current Conditions -  °F | °C
As of 11:53 PM on Tuesday 21 Oct 2014 (Local Time) from KODX Reporting Station
Clear Clear  
Wind Chill: 58°   Ceiling: Unl
Heat Index: 58°   Visibility: 10mi
Dew Point: 48°   Wind: 3mph
Humidity: 70%   Direction: NA
Pressure: 29.94"   Gusts: NA
Location:  41.914°N, 99.4547°W
Report Text: KODX 220453Z AUTO VRB03KT 10SM CLR 14/09 A2994 RMK AO2 SLP133 T01440089
Loading
Personal Weather Stations






























Interactive Weather Map
Tropical Storm Tracking
New forecast layout! Learn more

10-Day Weather Forecast

Advertisements
Track Severe Weather on mobile